sensor_id;sensor_type;location;lat;lon;timestamp;P1;durP1;ratioP1;P2;durP2;ratioP2
76023;SDS011;64719;52.124;6.226;2022-11-15T00:01:50;40.03;;;16.55;;
76023;SDS011;64719;52.124;6.226;2022-11-15T00:04:16;33.97;;;16.33;;
76023;SDS011;64719;52.124;6.226;2022-11-15T00:06:43;40.20;;;15.90;;
76023;SDS011;64719;52.124;6.226;2022-11-15T00:09:11;33.45;;;14.90;;
76023;SDS011;64719;52.124;6.226;2022-11-15T00:11:37;29.80;;;13.80;;
76023;SDS011;64719;52.124;6.226;2022-11-15T00:14:04;39.22;;;16.02;;
76023;SDS011;64719;52.124;6.226;2022-11-15T00:16:30;37.67;;;15.60;;
76023;SDS011;64719;52.124;6.226;2022-11-15T00:18:57;36.72;;;15.73;;
76023;SDS011;64719;52.124;6.226;2022-11-15T00:21:23;39.03;;;16.20;;
76023;SDS011;64719;52.124;6.226;2022-11-15T00:23:50;41.65;;;16.38;;
76023;SDS011;64719;52.124;6.226;2022-11-15T00:26:17;47.63;;;17.30;;
76023;SDS011;64719;52.124;6.226;2022-11-15T00:28:44;47.28;;;17.05;;
76023;SDS011;64719;52.124;6.226;2022-11-15T00:31:11;55.20;;;18.27;;
76023;SDS011;64719;52.124;6.226;2022-11-15T00:33:39;46.00;;;17.88;;
76023;SDS011;64719;52.124;6.226;2022-11-15T00:36:06;53.05;;;17.25;;
76023;SDS011;64719;52.124;6.226;2022-11-15T00:38:36;48.42;;;18.85;;
76023;SDS011;64719;52.124;6.226;2022-11-15T00:41:04;46.95;;;16.67;;
76023;SDS011;64719;52.124;6.226;2022-11-15T00:43:33;46.15;;;18.10;;
76023;SDS011;64719;52.124;6.226;2022-11-15T00:45:59;44.25;;;17.13;;
76023;SDS011;64719;52.124;6.226;2022-11-15T00:48:27;50.38;;;18.27;;
76023;SDS011;64719;52.124;6.226;2022-11-15T00:50:54;45.58;;;17.45;;
76023;SDS011;64719;52.124;6.226;2022-11-15T00:53:20;46.17;;;17.85;;
76023;SDS011;64719;52.124;6.226;2022-11-15T00:55:47;44.60;;;18.00;;
76023;SDS011;64719;52.124;6.226;2022-11-15T00:58:13;52.30;;;18.92;;
76023;SDS011;64719;52.124;6.226;2022-11-15T01:00:41;50.25;;;17.33;;
76023;SDS011;64719;52.124;6.226;2022-11-15T01:03:08;48.42;;;17.20;;
76023;SDS011;64719;52.124;6.226;2022-11-15T01:05:36;41.83;;;16.60;;
76023;SDS011;64719;52.124;6.226;2022-11-15T01:08:03;45.47;;;17.23;;
76023;SDS011;64719;52.124;6.226;2022-11-15T01:10:30;34.78;;;16.13;;
76023;SDS011;64719;52.124;6.226;2022-11-15T01:12:57;44.00;;;16.02;;
76023;SDS011;64719;52.124;6.226;2022-11-15T01:15:23;40.55;;;16.75;;
76023;SDS011;64719;52.124;6.226;2022-11-15T01:17:51;43.60;;;17.70;;
76023;SDS011;64719;52.124;6.226;2022-11-15T01:20:18;41.65;;;16.75;;
76023;SDS011;64719;52.124;6.226;2022-11-15T01:22:45;47.35;;;18.02;;
76023;SDS011;64719;52.124;6.226;2022-11-15T01:25:11;48.72;;;17.17;;
76023;SDS011;64719;52.124;6.226;2022-11-15T01:27:38;44.35;;;18.83;;
76023;SDS011;64719;52.124;6.226;2022-11-15T01:30:05;52.90;;;18.55;;
76023;SDS011;64719;52.124;6.226;2022-11-15T01:32:33;45.70;;;17.95;;
76023;SDS011;64719;52.124;6.226;2022-11-15T01:35:01;50.60;;;19.40;;
76023;SDS011;64719;52.124;6.226;2022-11-15T01:37:27;45.97;;;18.13;;
76023;SDS011;64719;52.124;6.226;2022-11-15T01:39:54;52.20;;;20.20;;
76023;SDS011;64719;52.124;6.226;2022-11-15T01:42:20;50.83;;;19.00;;
76023;SDS011;64719;52.124;6.226;2022-11-15T01:44:47;50.80;;;19.20;;
76023;SDS011;64719;52.124;6.226;2022-11-15T01:47:15;53.53;;;19.90;;
76023;SDS011;64719;52.124;6.226;2022-11-15T01:49:47;53.13;;;20.83;;
76023;SDS011;64719;52.124;6.226;2022-11-15T01:52:20;52.85;;;18.60;;
76023;SDS011;64719;52.124;6.226;2022-11-15T01:54:50;52.35;;;19.80;;
76023;SDS011;64719;52.124;6.226;2022-11-15T01:57:21;57.47;;;20.83;;
76023;SDS011;64719;52.124;6.226;2022-11-15T01:59:48;50.53;;;19.23;;
76023;SDS011;64719;52.124;6.226;2022-11-15T02:02:14;44.28;;;18.70;;
76023;SDS011;64719;52.124;6.226;2022-11-15T02:04:42;54.67;;;21.20;;
76023;SDS011;64719;52.124;6.226;2022-11-15T02:07:09;50.33;;;20.05;;
76023;SDS011;64719;52.124;6.226;2022-11-15T02:09:40;59.55;;;22.08;;
76023;SDS011;64719;52.124;6.226;2022-11-15T02:12:08;56.90;;;20.83;;
76023;SDS011;64719;52.124;6.226;2022-11-15T02:14:37;48.35;;;21.02;;
76023;SDS011;64719;52.124;6.226;2022-11-15T02:17:10;49.78;;;19.75;;
76023;SDS011;64719;52.124;6.226;2022-11-15T02:20:02;53.08;;;21.88;;
76023;SDS011;64719;52.124;6.226;2022-11-15T02:22:55;47.15;;;20.67;;
76023;SDS011;64719;52.124;6.226;2022-11-15T02:25:39;41.97;;;18.60;;
76023;SDS011;64719;52.124;6.226;2022-11-15T02:28:30;52.70;;;20.48;;
76023;SDS011;64719;52.124;6.226;2022-11-15T02:31:12;55.25;;;21.10;;
76023;SDS011;64719;52.124;6.226;2022-11-15T02:33:46;55.53;;;20.15;;
76023;SDS011;64719;52.124;6.226;2022-11-15T02:36:22;51.53;;;21.45;;
76023;SDS011;64719;52.124;6.226;2022-11-15T02:38:59;49.08;;;20.15;;
76023;SDS011;64719;52.124;6.226;2022-11-15T02:41:34;52.38;;;20.75;;
76023;SDS011;64719;52.124;6.226;2022-11-15T02:44:07;51.40;;;20.00;;
76023;SDS011;64719;52.124;6.226;2022-11-15T02:46:39;46.50;;;21.13;;
76023;SDS011;64719;52.124;6.226;2022-11-15T02:49:27;49.42;;;20.48;;
76023;SDS011;64719;52.124;6.226;2022-11-15T02:51:57;49.35;;;20.55;;
76023;SDS011;64719;52.124;6.226;2022-11-15T02:54:24;49.70;;;20.45;;
76023;SDS011;64719;52.124;6.226;2022-11-15T02:56:53;51.00;;;20.27;;
76023;SDS011;64719;52.124;6.226;2022-11-15T02:59:30;47.03;;;20.60;;
76023;SDS011;64719;52.124;6.226;2022-11-15T03:02:13;45.35;;;19.20;;
76023;SDS011;64719;52.124;6.226;2022-11-15T03:04:52;43.53;;;20.17;;
76023;SDS011;64719;52.124;6.226;2022-11-15T03:07:22;41.00;;;18.95;;
76023;SDS011;64719;52.124;6.226;2022-11-15T03:09:56;43.58;;;18.23;;
76023;SDS011;64719;52.124;6.226;2022-11-15T03:12:30;41.05;;;18.52;;
76023;SDS011;64719;52.124;6.226;2022-11-15T03:15:05;46.35;;;19.77;;
76023;SDS011;64719;52.124;6.226;2022-11-15T03:17:38;38.85;;;18.45;;
76023;SDS011;64719;52.124;6.226;2022-11-15T03:20:09;43.13;;;18.63;;
76023;SDS011;64719;52.124;6.226;2022-11-15T03:22:40;39.90;;;18.40;;
76023;SDS011;64719;52.124;6.226;2022-11-15T03:25:10;39.63;;;18.50;;
76023;SDS011;64719;52.124;6.226;2022-11-15T03:27:43;41.05;;;17.35;;
76023;SDS011;64719;52.124;6.226;2022-11-15T03:30:14;36.33;;;16.92;;
76023;SDS011;64719;52.124;6.226;2022-11-15T03:32:44;41.28;;;19.10;;
76023;SDS011;64719;52.124;6.226;2022-11-15T03:35:14;35.67;;;18.08;;
76023;SDS011;64719;52.124;6.226;2022-11-15T03:37:46;36.97;;;16.58;;
76023;SDS011;64719;52.124;6.226;2022-11-15T03:40:17;35.25;;;16.88;;
76023;SDS011;64719;52.124;6.226;2022-11-15T03:42:51;36.58;;;16.20;;
76023;SDS011;64719;52.124;6.226;2022-11-15T03:45:28;39.08;;;17.00;;
76023;SDS011;64719;52.124;6.226;2022-11-15T03:48:01;42.90;;;17.00;;
76023;SDS011;64719;52.124;6.226;2022-11-15T03:50:33;40.70;;;17.30;;
76023;SDS011;64719;52.124;6.226;2022-11-15T03:53:00;39.78;;;17.55;;
76023;SDS011;64719;52.124;6.226;2022-11-15T03:55:27;36.92;;;16.77;;
76023;SDS011;64719;52.124;6.226;2022-11-15T03:57:54;38.92;;;17.17;;
76023;SDS011;64719;52.124;6.226;2022-11-15T04:00:24;34.50;;;17.13;;
76023;SDS011;64719;52.124;6.226;2022-11-15T04:02:51;35.45;;;17.33;;
76023;SDS011;64719;52.124;6.226;2022-11-15T04:05:19;35.05;;;16.92;;
76023;SDS011;64719;52.124;6.226;2022-11-15T04:07:45;32.58;;;16.50;;
76023;SDS011;64719;52.124;6.226;2022-11-15T04:10:12;34.95;;;16.45;;
76023;SDS011;64719;52.124;6.226;2022-11-15T04:12:40;38.65;;;17.35;;
76023;SDS011;64719;52.124;6.226;2022-11-15T04:15:09;32.20;;;16.17;;
76023;SDS011;64719;52.124;6.226;2022-11-15T04:17:38;38.22;;;18.15;;
76023;SDS011;64719;52.124;6.226;2022-11-15T04:20:07;36.42;;;17.80;;
76023;SDS011;64719;52.124;6.226;2022-11-15T04:22:55;35.83;;;18.00;;
76023;SDS011;64719;52.124;6.226;2022-11-15T04:25:39;35.95;;;17.77;;
76023;SDS011;64719;52.124;6.226;2022-11-15T04:28:07;35.38;;;17.27;;
76023;SDS011;64719;52.124;6.226;2022-11-15T04:30:33;39.03;;;17.77;;
76023;SDS011;64719;52.124;6.226;2022-11-15T04:33:00;33.75;;;16.35;;
76023;SDS011;64719;52.124;6.226;2022-11-15T04:35:26;38.65;;;17.48;;
76023;SDS011;64719;52.124;6.226;2022-11-15T04:37:55;33.38;;;17.10;;
76023;SDS011;64719;52.124;6.226;2022-11-15T04:40:21;43.00;;;18.27;;
76023;SDS011;64719;52.124;6.226;2022-11-15T04:42:47;34.40;;;17.92;;
76023;SDS011;64719;52.124;6.226;2022-11-15T04:45:14;37.78;;;17.55;;
76023;SDS011;64719;52.124;6.226;2022-11-15T04:47:42;34.72;;;17.23;;
76023;SDS011;64719;52.124;6.226;2022-11-15T04:50:10;37.78;;;17.10;;
76023;SDS011;64719;52.124;6.226;2022-11-15T04:52:38;37.17;;;17.08;;
76023;SDS011;64719;52.124;6.226;2022-11-15T04:55:06;39.83;;;17.67;;
76023;SDS011;64719;52.124;6.226;2022-11-15T04:59:59;36.28;;;15.95;;
76023;SDS011;64719;52.124;6.226;2022-11-15T05:02:26;40.50;;;18.77;;
76023;SDS011;64719;52.124;6.226;2022-11-15T05:05:13;37.40;;;16.95;;
76023;SDS011;64719;52.124;6.226;2022-11-15T05:07:39;31.42;;;15.68;;
76023;SDS011;64719;52.124;6.226;2022-11-15T05:10:07;34.40;;;17.02;;
76023;SDS011;64719;52.124;6.226;2022-11-15T05:12:34;31.67;;;16.05;;
76023;SDS011;64719;52.124;6.226;2022-11-15T05:15:00;33.58;;;16.40;;
76023;SDS011;64719;52.124;6.226;2022-11-15T05:17:27;40.53;;;16.88;;
76023;SDS011;64719;52.124;6.226;2022-11-15T05:19:53;33.85;;;17.23;;
76023;SDS011;64719;52.124;6.226;2022-11-15T05:22:21;33.88;;;15.85;;
76023;SDS011;64719;52.124;6.226;2022-11-15T05:24:47;35.28;;;16.67;;
76023;SDS011;64719;52.124;6.226;2022-11-15T05:27:15;37.45;;;17.15;;
76023;SDS011;64719;52.124;6.226;2022-11-15T05:29:42;33.45;;;15.88;;
76023;SDS011;64719;52.124;6.226;2022-11-15T05:32:08;37.60;;;17.25;;
76023;SDS011;64719;52.124;6.226;2022-11-15T05:34:37;33.15;;;16.00;;
76023;SDS011;64719;52.124;6.226;2022-11-15T05:37:04;33.05;;;16.85;;
76023;SDS011;64719;52.124;6.226;2022-11-15T05:39:31;39.97;;;16.90;;
76023;SDS011;64719;52.124;6.226;2022-11-15T05:41:59;33.47;;;16.90;;
76023;SDS011;64719;52.124;6.226;2022-11-15T05:44:32;31.80;;;16.25;;
76023;SDS011;64719;52.124;6.226;2022-11-15T05:47:00;34.65;;;16.50;;
76023;SDS011;64719;52.124;6.226;2022-11-15T05:49:30;32.30;;;15.80;;
76023;SDS011;64719;52.124;6.226;2022-11-15T05:51:59;32.95;;;15.93;;
76023;SDS011;64719;52.124;6.226;2022-11-15T05:54:26;32.20;;;15.45;;
76023;SDS011;64719;52.124;6.226;2022-11-15T05:56:53;32.53;;;16.33;;
76023;SDS011;64719;52.124;6.226;2022-11-15T05:59:20;34.13;;;15.30;;
76023;SDS011;64719;52.124;6.226;2022-11-15T06:01:48;32.47;;;14.95;;
76023;SDS011;64719;52.124;6.226;2022-11-15T06:04:15;36.15;;;16.48;;
76023;SDS011;64719;52.124;6.226;2022-11-15T06:06:42;35.88;;;16.67;;
76023;SDS011;64719;52.124;6.226;2022-11-15T06:09:08;37.15;;;17.20;;
76023;SDS011;64719;52.124;6.226;2022-11-15T06:11:35;35.75;;;17.13;;
76023;SDS011;64719;52.124;6.226;2022-11-15T06:14:01;34.15;;;16.05;;
76023;SDS011;64719;52.124;6.226;2022-11-15T06:16:28;34.20;;;15.73;;
76023;SDS011;64719;52.124;6.226;2022-11-15T06:18:56;33.50;;;15.88;;
76023;SDS011;64719;52.124;6.226;2022-11-15T06:21:23;43.38;;;18.15;;
76023;SDS011;64719;52.124;6.226;2022-11-15T06:23:49;34.20;;;16.83;;
76023;SDS011;64719;52.124;6.226;2022-11-15T06:26:16;42.85;;;17.92;;
76023;SDS011;64719;52.124;6.226;2022-11-15T06:28:42;38.85;;;16.52;;
76023;SDS011;64719;52.124;6.226;2022-11-15T06:31:09;42.78;;;17.00;;
76023;SDS011;64719;52.124;6.226;2022-11-15T06:33:36;40.65;;;18.20;;
76023;SDS011;64719;52.124;6.226;2022-11-15T06:36:05;42.95;;;18.52;;
76023;SDS011;64719;52.124;6.226;2022-11-15T06:38:34;42.20;;;18.63;;
76023;SDS011;64719;52.124;6.226;2022-11-15T06:41:01;40.90;;;18.02;;
76023;SDS011;64719;52.124;6.226;2022-11-15T06:43:28;46.50;;;19.15;;
76023;SDS011;64719;52.124;6.226;2022-11-15T06:45:55;47.20;;;19.92;;
76023;SDS011;64719;52.124;6.226;2022-11-15T06:48:21;46.42;;;19.55;;
76023;SDS011;64719;52.124;6.226;2022-11-15T06:50:50;47.45;;;20.10;;
76023;SDS011;64719;52.124;6.226;2022-11-15T06:53:18;51.17;;;20.65;;
76023;SDS011;64719;52.124;6.226;2022-11-15T06:55:44;51.58;;;21.27;;
76023;SDS011;64719;52.124;6.226;2022-11-15T06:58:11;60.67;;;20.65;;
76023;SDS011;64719;52.124;6.226;2022-11-15T07:00:37;43.75;;;19.27;;
76023;SDS011;64719;52.124;6.226;2022-11-15T07:03:04;44.30;;;19.33;;
76023;SDS011;64719;52.124;6.226;2022-11-15T07:05:31;43.35;;;18.88;;
76023;SDS011;64719;52.124;6.226;2022-11-15T07:07:57;46.00;;;19.35;;
76023;SDS011;64719;52.124;6.226;2022-11-15T07:10:26;43.67;;;18.10;;
76023;SDS011;64719;52.124;6.226;2022-11-15T07:12:53;46.63;;;19.40;;
76023;SDS011;64719;52.124;6.226;2022-11-15T07:15:22;41.45;;;18.42;;
76023;SDS011;64719;52.124;6.226;2022-11-15T07:17:51;40.60;;;18.15;;
76023;SDS011;64719;52.124;6.226;2022-11-15T07:20:18;36.75;;;16.85;;
76023;SDS011;64719;52.124;6.226;2022-11-15T07:22:44;42.38;;;17.73;;
76023;SDS011;64719;52.124;6.226;2022-11-15T07:25:11;39.45;;;18.00;;
76023;SDS011;64719;52.124;6.226;2022-11-15T07:27:39;36.42;;;17.80;;
76023;SDS011;64719;52.124;6.226;2022-11-15T07:30:06;38.95;;;16.98;;
76023;SDS011;64719;52.124;6.226;2022-11-15T07:32:33;30.85;;;15.13;;
76023;SDS011;64719;52.124;6.226;2022-11-15T07:35:00;32.63;;;16.35;;
76023;SDS011;64719;52.124;6.226;2022-11-15T07:37:26;33.42;;;16.52;;
76023;SDS011;64719;52.124;6.226;2022-11-15T07:39:53;31.67;;;15.18;;
76023;SDS011;64719;52.124;6.226;2022-11-15T07:42:19;31.42;;;15.75;;
76023;SDS011;64719;52.124;6.226;2022-11-15T07:45:05;29.52;;;15.13;;
76023;SDS011;64719;52.124;6.226;2022-11-15T07:47:32;30.35;;;15.40;;
76023;SDS011;64719;52.124;6.226;2022-11-15T07:49:59;29.60;;;15.52;;
76023;SDS011;64719;52.124;6.226;2022-11-15T07:52:25;36.58;;;17.02;;
76023;SDS011;64719;52.124;6.226;2022-11-15T07:54:52;31.08;;;16.23;;
76023;SDS011;64719;52.124;6.226;2022-11-15T07:57:18;32.65;;;15.95;;
76023;SDS011;64719;52.124;6.226;2022-11-15T07:59:44;35.33;;;16.33;;
76023;SDS011;64719;52.124;6.226;2022-11-15T08:02:12;34.00;;;16.42;;
76023;SDS011;64719;52.124;6.226;2022-11-15T08:04:41;38.42;;;16.90;;
76023;SDS011;64719;52.124;6.226;2022-11-15T08:07:08;37.63;;;17.40;;
76023;SDS011;64719;52.124;6.226;2022-11-15T08:09:35;43.70;;;18.05;;
76023;SDS011;64719;52.124;6.226;2022-11-15T08:12:01;40.05;;;18.23;;
76023;SDS011;64719;52.124;6.226;2022-11-15T08:14:28;41.95;;;17.27;;
76023;SDS011;64719;52.124;6.226;2022-11-15T08:16:54;39.97;;;17.50;;
76023;SDS011;64719;52.124;6.226;2022-11-15T08:19:22;31.75;;;15.60;;
76023;SDS011;64719;52.124;6.226;2022-11-15T08:21:49;39.47;;;15.73;;
76023;SDS011;64719;52.124;6.226;2022-11-15T08:24:16;38.08;;;15.88;;
76023;SDS011;64719;52.124;6.226;2022-11-15T08:26:42;32.35;;;15.75;;
76023;SDS011;64719;52.124;6.226;2022-11-15T08:29:09;31.40;;;15.27;;
76023;SDS011;64719;52.124;6.226;2022-11-15T08:31:35;27.27;;;14.45;;
76023;SDS011;64719;52.124;6.226;2022-11-15T08:34:02;32.28;;;14.82;;
76023;SDS011;64719;52.124;6.226;2022-11-15T08:36:31;26.63;;;13.02;;
76023;SDS011;64719;52.124;6.226;2022-11-15T08:41:25;26.50;;;12.27;;
76023;SDS011;64719;52.124;6.226;2022-11-15T08:43:54;28.13;;;12.95;;
76023;SDS011;64719;52.124;6.226;2022-11-15T08:46:21;26.52;;;13.38;;
76023;SDS011;64719;52.124;6.226;2022-11-15T08:48:47;24.70;;;12.35;;
76023;SDS011;64719;52.124;6.226;2022-11-15T08:51:14;26.45;;;13.30;;
76023;SDS011;64719;52.124;6.226;2022-11-15T08:53:42;25.55;;;12.68;;
76023;SDS011;64719;52.124;6.226;2022-11-15T08:56:09;23.75;;;12.38;;
76023;SDS011;64719;52.124;6.226;2022-11-15T08:58:37;21.95;;;11.45;;
76023;SDS011;64719;52.124;6.226;2022-11-15T09:01:04;19.27;;;10.57;;
76023;SDS011;64719;52.124;6.226;2022-11-15T09:03:31;18.38;;;9.80;;
76023;SDS011;64719;52.124;6.226;2022-11-15T09:05:58;16.65;;;9.13;;
76023;SDS011;64719;52.124;6.226;2022-11-15T09:10:57;12.95;;;7.80;;
76023;SDS011;64719;52.124;6.226;2022-11-15T09:13:23;15.18;;;8.05;;
76023;SDS011;64719;52.124;6.226;2022-11-15T09:15:50;17.10;;;7.78;;
76023;SDS011;64719;52.124;6.226;2022-11-15T09:18:16;16.08;;;7.95;;
76023;SDS011;64719;52.124;6.226;2022-11-15T09:20:43;10.32;;;5.80;;
76023;SDS011;64719;52.124;6.226;2022-11-15T09:23:09;12.25;;;6.57;;
76023;SDS011;64719;52.124;6.226;2022-11-15T09:25:36;11.70;;;5.80;;
76023;SDS011;64719;52.124;6.226;2022-11-15T09:28:06;14.38;;;6.85;;
76023;SDS011;64719;52.124;6.226;2022-11-15T09:30:34;14.02;;;6.35;;
76023;SDS011;64719;52.124;6.226;2022-11-15T09:33:05;11.70;;;6.43;;
76023;SDS011;64719;52.124;6.226;2022-11-15T09:35:32;10.00;;;6.03;;
76023;SDS011;64719;52.124;6.226;2022-11-15T09:37:59;11.52;;;6.25;;
76023;SDS011;64719;52.124;6.226;2022-11-15T09:40:26;10.57;;;6.13;;
76023;SDS011;64719;52.124;6.226;2022-11-15T09:43:00;10.73;;;5.65;;
76023;SDS011;64719;52.124;6.226;2022-11-15T09:45:47;7.15;;;4.70;;
76023;SDS011;64719;52.124;6.226;2022-11-15T09:51:18;7.97;;;4.47;;
76023;SDS011;64719;52.124;6.226;2022-11-15T09:53:54;10.95;;;4.93;;
76023;SDS011;64719;52.124;6.226;2022-11-15T09:56:25;8.82;;;5.20;;
76023;SDS011;64719;52.124;6.226;2022-11-15T09:58:57;7.57;;;5.53;;
76023;SDS011;64719;52.124;6.226;2022-11-15T10:01:36;10.52;;;4.72;;
76023;SDS011;64719;52.124;6.226;2022-11-15T10:04:07;11.18;;;5.40;;
76023;SDS011;64719;52.124;6.226;2022-11-15T10:06:34;9.50;;;4.70;;
76023;SDS011;64719;52.124;6.226;2022-11-15T10:09:06;8.32;;;4.50;;
76023;SDS011;64719;52.124;6.226;2022-11-15T10:11:38;6.45;;;4.18;;
76023;SDS011;64719;52.124;6.226;2022-11-15T10:16:53;9.18;;;5.00;;
76023;SDS011;64719;52.124;6.226;2022-11-15T10:19:30;8.98;;;4.60;;
76023;SDS011;64719;52.124;6.226;2022-11-15T10:22:08;8.45;;;4.80;;
76023;SDS011;64719;52.124;6.226;2022-11-15T10:24:45;8.55;;;5.60;;
76023;SDS011;64719;52.124;6.226;2022-11-15T10:27:13;8.68;;;4.78;;
76023;SDS011;64719;52.124;6.226;2022-11-15T10:29:42;8.65;;;4.78;;
76023;SDS011;64719;52.124;6.226;2022-11-15T10:32:11;10.40;;;4.60;;
76023;SDS011;64719;52.124;6.226;2022-11-15T10:34:39;8.45;;;4.35;;
76023;SDS011;64719;52.124;6.226;2022-11-15T10:37:05;8.70;;;4.55;;
76023;SDS011;64719;52.124;6.226;2022-11-15T10:39:32;8.05;;;4.35;;
76023;SDS011;64719;52.124;6.226;2022-11-15T10:42:02;6.75;;;4.20;;
76023;SDS011;64719;52.124;6.226;2022-11-15T10:44:42;7.68;;;3.90;;
76023;SDS011;64719;52.124;6.226;2022-11-15T10:47:24;8.32;;;4.45;;
76023;SDS011;64719;52.124;6.226;2022-11-15T10:49:54;7.40;;;4.10;;
76023;SDS011;64719;52.124;6.226;2022-11-15T10:52:23;6.68;;;3.67;;
76023;SDS011;64719;52.124;6.226;2022-11-15T10:54:50;6.95;;;4.10;;
76023;SDS011;64719;52.124;6.226;2022-11-15T10:57:21;6.00;;;3.65;;
76023;SDS011;64719;52.124;6.226;2022-11-15T10:59:51;7.03;;;3.80;;
76023;SDS011;64719;52.124;6.226;2022-11-15T11:02:28;11.02;;;3.83;;
76023;SDS011;64719;52.124;6.226;2022-11-15T11:04:57;6.10;;;2.90;;
76023;SDS011;64719;52.124;6.226;2022-11-15T11:07:25;6.22;;;3.75;;
76023;SDS011;64719;52.124;6.226;2022-11-15T11:09:57;6.13;;;3.63;;
76023;SDS011;64719;52.124;6.226;2022-11-15T11:12:29;6.97;;;3.03;;
76023;SDS011;64719;52.124;6.226;2022-11-15T11:14:58;5.70;;;2.97;;
76023;SDS011;64719;52.124;6.226;2022-11-15T11:17:31;4.82;;;2.78;;
76023;SDS011;64719;52.124;6.226;2022-11-15T11:20:07;5.80;;;2.50;;
76023;SDS011;64719;52.124;6.226;2022-11-15T11:22:42;4.30;;;2.38;;
76023;SDS011;64719;52.124;6.226;2022-11-15T11:25:22;3.40;;;2.58;;
76023;SDS011;64719;52.124;6.226;2022-11-15T11:27:59;5.43;;;2.53;;
76023;SDS011;64719;52.124;6.226;2022-11-15T11:30:42;5.07;;;2.50;;
76023;SDS011;64719;52.124;6.226;2022-11-15T11:33:18;5.18;;;2.70;;
76023;SDS011;64719;52.124;6.226;2022-11-15T11:35:50;3.10;;;2.30;;
76023;SDS011;64719;52.124;6.226;2022-11-15T11:38:34;4.75;;;2.50;;
76023;SDS011;64719;52.124;6.226;2022-11-15T11:41:15;4.00;;;2.33;;
76023;SDS011;64719;52.124;6.226;2022-11-15T11:43:51;3.40;;;2.30;;
76023;SDS011;64719;52.124;6.226;2022-11-15T11:46:32;4.38;;;1.85;;
76023;SDS011;64719;52.124;6.226;2022-11-15T11:49:12;2.58;;;2.00;;
76023;SDS011;64719;52.124;6.226;2022-11-15T11:51:46;2.47;;;1.80;;
76023;SDS011;64719;52.124;6.226;2022-11-15T11:54:17;4.13;;;1.50;;
76023;SDS011;64719;52.124;6.226;2022-11-15T11:56:48;2.70;;;1.50;;
76023;SDS011;64719;52.124;6.226;2022-11-15T11:59:19;4.55;;;1.60;;
76023;SDS011;64719;52.124;6.226;2022-11-15T12:01:51;3.35;;;1.48;;
76023;SDS011;64719;52.124;6.226;2022-11-15T12:04:20;2.83;;;1.25;;
76023;SDS011;64719;52.124;6.226;2022-11-15T12:06:53;4.43;;;1.48;;
76023;SDS011;64719;52.124;6.226;2022-11-15T12:09:26;3.25;;;1.30;;
76023;SDS011;64719;52.124;6.226;2022-11-15T12:12:00;3.40;;;1.10;;
76023;SDS011;64719;52.124;6.226;2022-11-15T12:14:35;2.22;;;1.00;;
76023;SDS011;64719;52.124;6.226;2022-11-15T12:17:07;3.03;;;1.17;;
76023;SDS011;64719;52.124;6.226;2022-11-15T12:19:37;2.30;;;1.10;;
76023;SDS011;64719;52.124;6.226;2022-11-15T12:22:04;2.88;;;1.20;;
76023;SDS011;64719;52.124;6.226;2022-11-15T12:24:38;4.57;;;1.45;;
76023;SDS011;64719;52.124;6.226;2022-11-15T12:27:11;4.07;;;1.00;;
76023;SDS011;64719;52.124;6.226;2022-11-15T12:29:43;3.00;;;1.00;;
76023;SDS011;64719;52.124;6.226;2022-11-15T12:32:17;2.35;;;1.15;;
76023;SDS011;64719;52.124;6.226;2022-11-15T12:34:51;2.55;;;0.80;;
76023;SDS011;64719;52.124;6.226;2022-11-15T12:37:46;1.55;;;0.70;;
76023;SDS011;64719;52.124;6.226;2022-11-15T12:40:25;2.05;;;1.00;;
76023;SDS011;64719;52.124;6.226;2022-11-15T12:42:57;1.70;;;0.93;;
76023;SDS011;64719;52.124;6.226;2022-11-15T12:45:50;3.50;;;1.10;;
76023;SDS011;64719;52.124;6.226;2022-11-15T12:54:51;2.00;;;1.00;;
76023;SDS011;64719;52.124;6.226;2022-11-15T12:57:41;3.13;;;0.95;;
76023;SDS011;64719;52.124;6.226;2022-11-15T13:03:16;4.70;;;1.00;;
76023;SDS011;64719;52.124;6.226;2022-11-15T13:08:55;1.90;;;1.02;;
76023;SDS011;64719;52.124;6.226;2022-11-15T13:20:17;6.95;;;3.75;;
76023;SDS011;64719;52.124;6.226;2022-11-15T13:22:47;5.68;;;3.13;;
76023;SDS011;64719;52.124;6.226;2022-11-15T13:25:22;6.97;;;2.92;;
76023;SDS011;64719;52.124;6.226;2022-11-15T13:28:00;28.33;;;13.07;;
76023;SDS011;64719;52.124;6.226;2022-11-15T13:30:28;37.42;;;15.38;;
76023;SDS011;64719;52.124;6.226;2022-11-15T13:32:57;23.02;;;9.02;;
76023;SDS011;64719;52.124;6.226;2022-11-15T13:35:28;19.65;;;8.13;;
76023;SDS011;64719;52.124;6.226;2022-11-15T13:37:57;34.10;;;14.93;;
76023;SDS011;64719;52.124;6.226;2022-11-15T13:40:34;20.35;;;8.70;;
76023;SDS011;64719;52.124;6.226;2022-11-15T13:43:15;28.75;;;13.18;;
76023;SDS011;64719;52.124;6.226;2022-11-15T13:46:04;25.92;;;11.60;;
76023;SDS011;64719;52.124;6.226;2022-11-15T13:48:32;24.95;;;10.52;;
76023;SDS011;64719;52.124;6.226;2022-11-15T13:50:59;6.50;;;4.20;;
76023;SDS011;64719;52.124;6.226;2022-11-15T13:53:26;5.82;;;2.88;;
76023;SDS011;64719;52.124;6.226;2022-11-15T13:55:53;5.47;;;2.00;;
76023;SDS011;64719;52.124;6.226;2022-11-15T13:58:23;4.18;;;2.50;;
76023;SDS011;64719;52.124;6.226;2022-11-15T14:00:59;3.45;;;2.22;;
76023;SDS011;64719;52.124;6.226;2022-11-15T14:03:27;4.03;;;1.90;;
76023;SDS011;64719;52.124;6.226;2022-11-15T14:06:02;4.20;;;1.92;;
76023;SDS011;64719;52.124;6.226;2022-11-15T14:08:31;4.35;;;1.85;;
76023;SDS011;64719;52.124;6.226;2022-11-15T14:16:41;6.15;;;2.15;;
76023;SDS011;64719;52.124;6.226;2022-11-15T14:19:10;4.07;;;2.20;;
76023;SDS011;64719;52.124;6.226;2022-11-15T14:21:49;3.65;;;2.28;;
76023;SDS011;64719;52.124;6.226;2022-11-15T14:24:34;6.47;;;2.35;;
76023;SDS011;64719;52.124;6.226;2022-11-15T14:27:15;7.15;;;2.42;;
76023;SDS011;64719;52.124;6.226;2022-11-15T14:29:44;4.03;;;1.60;;
76023;SDS011;64719;52.124;6.226;2022-11-15T14:32:12;5.65;;;2.42;;
76023;SDS011;64719;52.124;6.226;2022-11-15T14:34:40;7.18;;;2.97;;
76023;SDS011;64719;52.124;6.226;2022-11-15T14:37:09;4.80;;;2.28;;
76023;SDS011;64719;52.124;6.226;2022-11-15T14:39:44;2.78;;;1.48;;
76023;SDS011;64719;52.124;6.226;2022-11-15T14:42:11;3.78;;;1.70;;
76023;SDS011;64719;52.124;6.226;2022-11-15T14:44:37;3.28;;;1.50;;
76023;SDS011;64719;52.124;6.226;2022-11-15T14:47:05;3.50;;;1.63;;
76023;SDS011;64719;52.124;6.226;2022-11-15T14:49:32;4.78;;;2.38;;
76023;SDS011;64719;52.124;6.226;2022-11-15T14:51:58;3.15;;;1.63;;
76023;SDS011;64719;52.124;6.226;2022-11-15T14:54:25;5.00;;;1.90;;
76023;SDS011;64719;52.124;6.226;2022-11-15T14:56:51;9.15;;;3.50;;
76023;SDS011;64719;52.124;6.226;2022-11-15T14:59:18;4.85;;;1.83;;
76023;SDS011;64719;52.124;6.226;2022-11-15T15:01:44;2.60;;;1.33;;
76023;SDS011;64719;52.124;6.226;2022-11-15T15:04:12;3.22;;;1.55;;
76023;SDS011;64719;52.124;6.226;2022-11-15T15:06:38;4.65;;;1.50;;
76023;SDS011;64719;52.124;6.226;2022-11-15T15:09:05;3.55;;;1.42;;
76023;SDS011;64719;52.124;6.226;2022-11-15T15:11:31;3.58;;;1.70;;
76023;SDS011;64719;52.124;6.226;2022-11-15T15:13:58;3.45;;;1.30;;
76023;SDS011;64719;52.124;6.226;2022-11-15T15:16:26;3.63;;;1.25;;
76023;SDS011;64719;52.124;6.226;2022-11-15T15:18:53;3.95;;;1.42;;
76023;SDS011;64719;52.124;6.226;2022-11-15T15:21:21;2.72;;;1.27;;
76023;SDS011;64719;52.124;6.226;2022-11-15T15:23:49;3.78;;;1.65;;
76023;SDS011;64719;52.124;6.226;2022-11-15T15:26:16;2.38;;;1.30;;
76023;SDS011;64719;52.124;6.226;2022-11-15T15:28:43;3.00;;;1.27;;